createdAt,value
2017-08-07T00:00:11.121Z,66.90
2017-08-07T00:02:37.481Z,66.90
2017-08-07T00:05:04.591Z,66.70
2017-08-07T00:07:30.920Z,66.70
2017-08-07T00:09:57.224Z,66.60
2017-08-07T00:12:23.581Z,66.40
2017-08-07T00:14:49.903Z,66.40
2017-08-07T00:17:26.168Z,66.40
2017-08-07T00:19:52.495Z,66.50
2017-08-07T00:22:18.893Z,66.50
2017-08-07T00:24:45.219Z,66.30
2017-08-07T00:27:12.371Z,66.40
2017-08-07T00:29:38.669Z,66.40
2017-08-07T00:32:05.034Z,66.60
2017-08-07T00:34:32.179Z,67.00
2017-08-07T00:36:59.275Z,66.70
2017-08-07T00:39:26.741Z,66.70
2017-08-07T00:41:53.044Z,66.70
2017-08-07T00:44:19.349Z,67.10
2017-08-07T00:46:46.428Z,66.90
2017-08-07T00:49:12.769Z,66.90
2017-08-07T00:51:39.060Z,66.80
2017-08-07T00:54:05.443Z,67.20
2017-08-07T00:56:31.747Z,67.10
2017-08-07T00:58:58.065Z,66.90
2017-08-07T01:01:24.447Z,66.70
2017-08-07T01:03:50.892Z,66.40
2017-08-07T01:06:17.288Z,66.60
2017-08-07T01:08:43.639Z,66.80
2017-08-07T01:11:09.971Z,67.10
2017-08-07T01:13:36.267Z,67.40
2017-08-07T01:16:02.630Z,67.50
2017-08-07T01:18:28.967Z,67.70
2017-08-07T01:20:55.259Z,68.30
2017-08-07T01:23:21.708Z,68.50
2017-08-07T01:25:48.029Z,68.50
2017-08-07T01:28:14.371Z,68.40
2017-08-07T01:30:40.678Z,68.20
2017-08-07T01:33:07.052Z,68.30
2017-08-07T01:35:33.423Z,68.00
2017-08-07T01:38:00.541Z,67.70
2017-08-07T01:40:26.882Z,66.80
2017-08-07T01:42:53.214Z,66.40
2017-08-07T01:45:20.292Z,66.00
2017-08-07T01:47:46.659Z,66.00
2017-08-07T01:50:13.047Z,65.80
2017-08-07T01:52:39.452Z,65.70
2017-08-07T01:55:05.873Z,65.70
2017-08-07T01:57:32.974Z,65.00
2017-08-07T01:59:59.284Z,65.00
2017-08-07T02:02:26.348Z,66.00
2017-08-07T02:04:52.669Z,66.00
2017-08-07T02:07:19.035Z,66.00
2017-08-07T02:09:45.356Z,66.10
2017-08-07T02:12:11.700Z,66.10
2017-08-07T02:14:38.000Z,66.60
2017-08-07T02:17:04.295Z,67.30
2017-08-07T02:19:30.615Z,67.10
2017-08-07T02:21:56.917Z,67.40
2017-08-07T02:24:23.521Z,67.50
2017-08-07T02:26:50.575Z,67.40
2017-08-07T02:29:16.890Z,67.40
2017-08-07T02:31:43.228Z,67.10
2017-08-07T02:34:10.326Z,68.30
2017-08-07T02:36:36.653Z,68.30
2017-08-07T02:39:03.364Z,69.20
2017-08-07T02:41:29.688Z,69.50
2017-08-07T02:43:56.004Z,69.20
2017-08-07T02:46:23.055Z,69.10
2017-08-07T02:48:49.390Z,69.00
2017-08-07T02:51:15.684Z,68.80
2017-08-07T02:53:41.976Z,68.60
2017-08-07T02:56:08.303Z,69.20
2017-08-07T02:58:34.643Z,69.40
2017-08-07T03:01:00.945Z,69.80
2017-08-07T03:03:27.315Z,70.00
2017-08-07T03:05:53.630Z,70.10
2017-08-07T03:08:19.943Z,70.80
2017-08-07T03:10:46.270Z,69.80
2017-08-07T03:13:12.595Z,69.70
2017-08-07T03:15:38.923Z,69.30
2017-08-07T03:18:05.237Z,69.20
2017-08-07T03:20:32.284Z,69.00
2017-08-07T03:22:59.316Z,68.70
2017-08-07T03:25:25.629Z,68.70
2017-08-07T03:27:51.943Z,68.30
2017-08-07T03:30:18.282Z,68.10
2017-08-07T03:32:44.618Z,67.90
2017-08-07T03:35:11.696Z,68.40
2017-08-07T03:37:38.771Z,67.60
2017-08-07T03:40:05.096Z,67.50
2017-08-07T03:42:31.415Z,67.30
2017-08-07T03:44:57.731Z,67.40
2017-08-07T03:47:24.068Z,67.60
2017-08-07T03:49:50.367Z,67.40
2017-08-07T03:52:16.695Z,67.20
2017-08-07T03:54:42.987Z,66.00
2017-08-07T03:57:09.319Z,66.20
2017-08-07T03:59:35.646Z,66.10
2017-08-07T04:02:01.956Z,66.10
2017-08-07T04:04:28.270Z,66.20
2017-08-07T04:06:54.596Z,65.90
2017-08-07T04:09:22.735Z,65.60
2017-08-07T04:11:49.043Z,65.60
2017-08-07T04:14:15.347Z,65.70
2017-08-07T04:16:41.712Z,65.40
2017-08-07T04:19:08.004Z,65.20
2017-08-07T04:21:34.317Z,65.20
2017-08-07T04:24:01.340Z,65.80
2017-08-07T04:26:27.723Z,65.80
2017-08-07T04:28:54.033Z,65.50
2017-08-07T04:31:20.348Z,65.60
2017-08-07T04:33:47.432Z,65.90
2017-08-07T04:36:13.812Z,65.00
2017-08-07T04:38:40.912Z,64.50
2017-08-07T04:41:07.227Z,64.50
2017-08-07T04:43:33.519Z,64.80
2017-08-07T04:45:59.852Z,64.60
2017-08-07T04:48:26.132Z,64.70
2017-08-07T04:50:52.461Z,64.50
2017-08-07T04:53:18.805Z,64.90
2017-08-07T04:55:45.108Z,64.50
2017-08-07T04:58:11.442Z,64.40
2017-08-07T05:00:37.739Z,63.90
2017-08-07T05:03:04.080Z,63.20
2017-08-07T05:05:30.414Z,62.40
2017-08-07T05:07:57.439Z,61.40
2017-08-07T05:10:23.740Z,61.40
2017-08-07T05:12:50.853Z,61.60
2017-08-07T05:15:17.190Z,61.60
2017-08-07T05:17:43.487Z,61.60
2017-08-07T05:20:09.770Z,61.00
2017-08-07T05:22:36.095Z,61.10
2017-08-07T05:25:02.418Z,60.70
2017-08-07T05:27:28.703Z,60.20
2017-08-07T05:29:55.047Z,59.80
2017-08-07T05:32:22.112Z,58.10
2017-08-07T05:34:48.501Z,58.10
2017-08-07T05:37:14.825Z,58.10
2017-08-07T05:39:41.219Z,57.40
2017-08-07T05:42:07.543Z,57.10
2017-08-07T05:44:33.932Z,58.10
2017-08-07T05:47:00.263Z,58.10
2017-08-07T05:49:26.551Z,57.20
2017-08-07T05:51:52.924Z,56.40
2017-08-07T05:54:20.028Z,56.70
2017-08-07T05:56:46.327Z,56.70
2017-08-07T05:59:13.451Z,55.80
2017-08-07T06:01:39.749Z,55.80
2017-08-07T06:04:06.061Z,56.90
2017-08-07T06:06:32.355Z,56.70
2017-08-07T06:08:58.665Z,55.60
2017-08-07T06:11:24.991Z,56.30
2017-08-07T06:13:51.296Z,55.00
2017-08-07T06:16:17.682Z,54.60
2017-08-07T06:18:44.720Z,55.10
2017-08-07T06:21:11.052Z,55.00
2017-08-07T06:23:38.135Z,54.80
2017-08-07T06:26:04.418Z,54.80
2017-08-07T06:28:30.716Z,55.20
2017-08-07T06:30:57.040Z,55.00
2017-08-07T06:33:23.352Z,54.80
2017-08-07T06:35:49.671Z,55.20
2017-08-07T06:38:15.972Z,54.80
2017-08-07T06:40:42.336Z,54.30
2017-08-07T06:43:08.653Z,53.70
2017-08-07T06:45:35.015Z,53.60
2017-08-07T06:48:01.300Z,53.10
2017-08-07T06:50:27.664Z,51.80
2017-08-07T06:52:53.979Z,52.00
2017-08-07T06:55:20.300Z,51.50
2017-08-07T06:57:46.623Z,51.90
2017-08-07T07:00:13.650Z,50.70
2017-08-07T07:02:39.960Z,50.70
2017-08-07T07:05:06.311Z,50.60
2017-08-07T07:07:32.633Z,51.30
2017-08-07T07:09:58.984Z,49.40
2017-08-07T07:12:26.051Z,47.50
2017-08-07T07:14:52.424Z,47.50
2017-08-07T07:17:18.799Z,47.70
2017-08-07T07:19:45.176Z,47.00
2017-08-07T07:22:11.509Z,47.40
2017-08-07T07:24:37.847Z,45.80
2017-08-07T07:27:04.164Z,45.00
2017-08-07T07:29:30.561Z,44.20
2017-08-07T07:31:56.851Z,44.80
2017-08-07T07:34:23.228Z,45.00
2017-08-07T07:36:49.555Z,44.80
2017-08-07T07:39:15.869Z,43.80
2017-08-07T07:41:42.260Z,44.00
2017-08-07T07:44:08.601Z,44.40
2017-08-07T07:46:35.007Z,44.70
2017-08-07T07:49:01.325Z,44.00
2017-08-07T07:51:27.631Z,44.20
2017-08-07T07:53:53.992Z,44.70
2017-08-07T07:56:20.332Z,45.40
2017-08-07T07:58:46.631Z,43.90
2017-08-07T08:01:12.960Z,43.70
2017-08-07T08:03:39.284Z,43.60
2017-08-07T08:06:05.589Z,43.70
2017-08-07T08:08:31.947Z,44.00
2017-08-07T08:10:58.256Z,43.00
2017-08-07T08:13:24.551Z,42.50
2017-08-07T08:15:50.889Z,43.20
2017-08-07T08:18:17.207Z,41.80
2017-08-07T08:20:43.524Z,42.10
2017-08-07T08:23:09.807Z,42.10
2017-08-07T08:25:36.887Z,41.50
2017-08-07T08:28:03.188Z,41.50
2017-08-07T08:30:30.228Z,40.60
2017-08-07T08:32:56.559Z,40.00
2017-08-07T08:35:22.865Z,40.80
2017-08-07T08:37:49.982Z,39.70
2017-08-07T08:40:16.275Z,39.70
2017-08-07T08:42:42.612Z,39.90
2017-08-07T08:45:09.673Z,41.20
2017-08-07T08:47:35.993Z,41.20
2017-08-07T08:50:02.330Z,40.40
2017-08-07T08:52:28.708Z,39.80
2017-08-07T08:54:55.011Z,38.60
2017-08-07T08:57:21.392Z,38.00
2017-08-07T08:59:48.484Z,39.20
2017-08-07T09:02:14.808Z,39.20
2017-08-07T09:04:41.199Z,38.00
2017-08-07T09:07:07.570Z,37.50
2017-08-07T09:09:33.903Z,36.30
2017-08-07T09:12:00.196Z,36.70
2017-08-07T09:14:27.280Z,37.00
2017-08-07T09:16:53.578Z,37.70
2017-08-07T09:19:19.923Z,37.40
2017-08-07T09:21:46.977Z,37.60
2017-08-07T09:24:13.316Z,37.50
2017-08-07T09:26:39.657Z,37.20
2017-08-07T09:29:06.018Z,36.20
2017-08-07T09:31:32.361Z,36.70
2017-08-07T09:33:58.746Z,38.30
2017-08-07T09:36:25.481Z,36.80
2017-08-07T09:38:51.784Z,36.70
2017-08-07T09:41:18.112Z,35.70
2017-08-07T09:43:45.266Z,35.10
2017-08-07T09:46:12.312Z,36.60
2017-08-07T09:48:38.653Z,36.40
2017-08-07T09:51:05.030Z,35.50
2017-08-07T09:53:31.330Z,35.00
2017-08-07T09:55:57.624Z,36.60
2017-08-07T09:58:24.734Z,35.20
2017-08-07T10:00:51.116Z,34.90
2017-08-07T10:03:17.443Z,33.80
2017-08-07T10:05:44.527Z,35.20
2017-08-07T10:08:10.933Z,35.20
2017-08-07T10:10:37.279Z,35.70
2017-08-07T10:13:03.616Z,34.40
2017-08-07T10:15:29.911Z,33.30
2017-08-07T10:17:57.001Z,33.60
2017-08-07T10:20:23.309Z,33.50
2017-08-07T10:22:49.647Z,32.20
2017-08-07T10:25:16.073Z,31.90
2017-08-07T10:27:42.437Z,30.70
2017-08-07T10:30:08.793Z,29.20
2017-08-07T10:32:35.872Z,28.90
2017-08-07T10:35:02.954Z,30.90
2017-08-07T10:37:29.304Z,30.90
2017-08-07T10:39:55.634Z,32.20
2017-08-07T10:42:21.971Z,31.20
2017-08-07T10:44:48.632Z,30.20
2017-08-07T10:47:14.958Z,29.50
2017-08-07T10:49:41.260Z,29.50
2017-08-07T10:52:07.573Z,28.70
2017-08-07T10:54:33.888Z,29.00
2017-08-07T10:57:00.221Z,29.40
2017-08-07T10:59:26.841Z,29.20
2017-08-07T11:01:53.207Z,28.90
2017-08-07T11:04:19.528Z,29.10
2017-08-07T11:06:45.870Z,30.00
2017-08-07T11:09:12.193Z,30.30
2017-08-07T11:11:38.481Z,30.20
2017-08-07T11:14:04.859Z,32.00
2017-08-07T11:16:31.168Z,32.00
2017-08-07T11:18:57.508Z,31.60
2017-08-07T11:21:24.784Z,30.60
2017-08-07T11:23:51.107Z,31.60
2017-08-07T11:26:17.439Z,31.20
2017-08-07T11:28:43.735Z,31.60
2017-08-07T11:31:10.058Z,30.90
2017-08-07T11:33:36.500Z,31.70
2017-08-07T11:36:02.839Z,32.30
2017-08-07T11:38:29.152Z,31.60
2017-08-07T11:40:55.488Z,30.40
2017-08-07T11:43:21.868Z,30.20
2017-08-07T11:45:48.205Z,30.80
2017-08-07T11:48:14.552Z,30.40
2017-08-07T11:50:41.634Z,31.30
2017-08-07T11:53:07.921Z,31.20
2017-08-07T11:55:34.219Z,32.60
2017-08-07T11:58:00.569Z,33.30
2017-08-07T12:00:26.912Z,32.30
2017-08-07T12:02:53.271Z,32.00
2017-08-07T12:05:19.592Z,31.40
2017-08-07T12:07:46.133Z,31.80
2017-08-07T12:10:12.452Z,32.70
2017-08-07T12:12:39.688Z,32.70
2017-08-07T12:15:06.027Z,32.70
2017-08-07T12:17:33.112Z,34.00
2017-08-07T12:19:59.528Z,34.00
2017-08-07T12:22:25.844Z,31.80
2017-08-07T12:24:52.936Z,33.30
2017-08-07T12:27:19.288Z,33.20
2017-08-07T12:29:45.587Z,33.20
2017-08-07T12:32:12.035Z,32.80
2017-08-07T12:34:38.383Z,33.80
2017-08-07T12:37:04.730Z,32.30
2017-08-07T12:39:31.040Z,33.60
2017-08-07T12:41:57.451Z,32.50
2017-08-07T12:44:23.731Z,34.10
2017-08-07T12:46:50.033Z,34.00
2017-08-07T12:49:16.374Z,33.20
2017-08-07T12:51:42.726Z,32.40
2017-08-07T12:54:09.020Z,32.60
2017-08-07T12:56:35.360Z,32.50
2017-08-07T12:59:01.672Z,33.50
2017-08-07T13:01:27.973Z,32.90
2017-08-07T13:03:54.327Z,34.50
2017-08-07T13:06:20.667Z,34.00
2017-08-07T13:08:46.980Z,33.80
2017-08-07T14:02:43.414Z,33.90
2017-08-07T14:05:09.716Z,34.60
2017-08-07T14:07:36.173Z,34.60
2017-08-07T14:10:03.283Z,35.30
2017-08-07T14:12:29.619Z,34.60
2017-08-07T14:14:55.969Z,33.50
2017-08-07T14:17:23.087Z,36.60
2017-08-07T14:19:49.434Z,36.80
2017-08-07T14:22:15.781Z,37.40
2017-08-07T14:24:42.106Z,37.50
2017-08-07T14:27:08.487Z,37.60
2017-08-07T14:29:34.810Z,36.70
2017-08-07T14:32:01.116Z,37.10
2017-08-07T14:34:27.492Z,36.50
2017-08-07T14:36:53.952Z,36.80
2017-08-07T14:39:21.047Z,36.70
2017-08-07T14:41:47.390Z,36.60
2017-08-07T14:44:13.736Z,35.80
2017-08-07T14:46:40.037Z,35.60
2017-08-07T14:49:06.383Z,33.90
2017-08-07T14:51:32.703Z,34.50
2017-08-07T14:53:59.028Z,35.40
2017-08-07T14:56:25.348Z,35.20
2017-08-07T14:58:51.666Z,35.90
2017-08-07T15:01:18.760Z,37.40
2017-08-07T15:03:45.121Z,37.50
2017-08-07T15:06:11.412Z,36.20
2017-08-07T15:08:37.838Z,36.40
2017-08-07T15:11:04.184Z,36.00
2017-08-07T15:13:30.564Z,37.40
2017-08-07T15:15:57.614Z,37.20
2017-08-07T15:18:23.923Z,37.20
2017-08-07T15:20:50.241Z,38.40
2017-08-07T15:23:16.546Z,39.00
2017-08-07T15:25:42.864Z,37.80
2017-08-07T15:28:09.181Z,38.50
2017-08-07T15:30:35.497Z,38.80
2017-08-07T15:33:02.563Z,39.60
2017-08-07T15:35:28.911Z,39.60
2017-08-07T15:37:55.247Z,39.30
2017-08-07T15:40:21.616Z,39.40
2017-08-07T15:42:47.908Z,39.30
2017-08-07T15:45:14.211Z,40.20
2017-08-07T15:47:40.604Z,39.30
2017-08-07T15:50:06.901Z,39.60
2017-08-07T15:52:33.196Z,39.80
2017-08-07T15:54:59.539Z,39.90
2017-08-07T15:57:25.876Z,39.90
2017-08-07T15:59:52.184Z,39.80
2017-08-07T16:02:18.540Z,39.80
2017-08-07T16:04:44.880Z,40.30
2017-08-07T16:07:11.227Z,39.70
2017-08-07T16:09:37.532Z,39.80
2017-08-07T16:12:03.848Z,39.70
2017-08-07T16:14:30.184Z,40.60
2017-08-07T16:16:56.484Z,41.20
2017-08-07T16:19:22.832Z,41.20
2017-08-07T16:21:49.312Z,40.90
2017-08-07T16:24:15.688Z,41.30
2017-08-07T16:26:42.065Z,41.70
2017-08-07T16:29:08.374Z,40.80
2017-08-07T16:31:36.004Z,41.90
2017-08-07T16:34:02.676Z,42.40
2017-08-07T16:36:28.991Z,42.40
2017-08-07T16:38:55.297Z,41.70
2017-08-07T16:41:22.363Z,42.00
2017-08-07T16:43:48.748Z,42.00
2017-08-07T16:46:15.840Z,43.20
2017-08-07T16:48:42.173Z,42.50
2017-08-07T16:51:08.468Z,42.80
2017-08-07T16:53:34.768Z,42.30
2017-08-07T16:56:01.108Z,43.00
2017-08-07T16:58:27.421Z,43.10
2017-08-07T17:00:53.738Z,42.90
2017-08-07T17:03:20.145Z,43.50
2017-08-07T17:05:47.244Z,43.80
2017-08-07T17:08:13.586Z,43.70
2017-08-07T17:10:39.913Z,43.90
2017-08-07T17:13:06.219Z,44.10
2017-08-07T17:15:32.552Z,43.90
2017-08-07T17:17:58.896Z,44.00
2017-08-07T17:20:25.199Z,44.00
2017-08-07T17:22:51.756Z,43.80
2017-08-07T17:25:18.121Z,43.80
2017-08-07T17:27:44.498Z,43.60
2017-08-07T17:30:10.841Z,44.10
2017-08-07T17:32:37.152Z,44.00
2017-08-07T17:35:03.759Z,44.10
2017-08-07T17:37:30.176Z,44.10
2017-08-07T17:39:56.488Z,44.40
2017-08-07T17:42:22.800Z,43.70
2017-08-07T17:44:49.248Z,44.30
2017-08-07T17:47:15.581Z,45.20
2017-08-07T17:49:42.000Z,45.50
2017-08-07T17:52:08.321Z,45.50
2017-08-07T17:54:34.638Z,45.00
2017-08-07T17:57:01.559Z,44.50
2017-08-07T17:59:27.978Z,44.90
2017-08-07T18:01:54.504Z,45.40
2017-08-07T18:04:20.794Z,45.60
2017-08-07T18:06:47.122Z,46.00
2017-08-07T18:09:13.537Z,46.20
2017-08-07T18:11:39.902Z,46.30
2017-08-07T18:14:06.218Z,46.50
2017-08-07T18:16:32.528Z,46.80
2017-08-07T18:18:58.965Z,47.10
2017-08-07T18:21:25.332Z,47.20
2017-08-07T18:23:51.696Z,47.50
2017-08-07T18:26:18.048Z,47.90
2017-08-07T18:28:44.404Z,48.10
2017-08-07T18:31:10.728Z,48.40
2017-08-07T18:33:37.104Z,48.50
2017-08-07T18:36:03.452Z,48.60
2017-08-07T18:38:29.804Z,48.80
2017-08-07T18:40:56.149Z,48.70
2017-08-07T18:43:22.518Z,48.80
2017-08-07T18:45:48.817Z,48.80
2017-08-07T18:48:15.114Z,49.00
2017-08-07T18:50:41.420Z,49.20
2017-08-07T18:53:08.456Z,49.60
2017-08-07T18:55:34.864Z,49.60
2017-08-07T18:58:01.179Z,49.60
2017-08-07T19:00:27.523Z,50.00
2017-08-07T19:02:53.901Z,50.00
2017-08-07T19:05:20.564Z,49.70
2017-08-07T19:07:46.874Z,50.20
2017-08-07T19:10:13.203Z,50.50
2017-08-07T19:12:40.227Z,50.20
2017-08-07T19:15:06.547Z,50.10
2017-08-07T19:17:32.858Z,50.20
2017-08-07T19:19:59.208Z,50.40
2017-08-07T19:22:25.544Z,50.60
2017-08-07T19:24:51.854Z,50.60
2017-08-07T19:27:18.295Z,50.50
2017-08-07T19:29:45.363Z,50.70
2017-08-07T19:32:11.652Z,50.60
2017-08-07T19:34:37.988Z,51.30
2017-08-07T19:37:04.298Z,51.20
2017-08-07T19:39:30.617Z,51.30
2017-08-07T19:41:57.016Z,51.40
2017-08-07T19:44:24.052Z,52.10
2017-08-07T19:46:50.383Z,51.50
2017-08-07T19:49:16.777Z,52.10
2017-08-07T19:51:43.084Z,52.60
2017-08-07T19:54:09.406Z,52.90
2017-08-07T19:56:35.752Z,53.20
2017-08-07T19:59:02.101Z,53.40
2017-08-07T20:01:28.405Z,53.70
2017-08-07T20:03:54.707Z,53.90
2017-08-07T20:06:21.043Z,54.10
2017-08-07T20:08:47.337Z,54.10
2017-08-07T20:11:13.676Z,54.60
2017-08-07T20:13:40.019Z,54.60
2017-08-07T20:16:07.065Z,55.30
2017-08-07T20:18:34.283Z,55.60
2017-08-07T20:21:00.622Z,55.40
2017-08-07T20:23:26.924Z,55.60
2017-08-07T20:25:53.256Z,55.90
2017-08-07T20:28:19.561Z,56.10
2017-08-07T20:30:45.930Z,56.30
2017-08-07T20:33:12.220Z,56.30
2017-08-07T20:35:38.560Z,56.40
2017-08-07T20:38:04.969Z,57.30
2017-08-07T20:40:31.265Z,56.80
2017-08-07T20:42:57.582Z,57.00
2017-08-07T20:45:23.895Z,57.10
2017-08-07T20:47:50.186Z,57.10
2017-08-07T20:50:17.240Z,57.40
2017-08-07T20:52:43.575Z,57.30
2017-08-07T20:55:10.629Z,57.70
2017-08-07T20:57:36.920Z,57.70
2017-08-07T21:00:03.364Z,57.50
2017-08-07T21:02:29.657Z,57.70
2017-08-07T21:04:55.975Z,57.70
2017-08-07T21:07:22.308Z,57.70
2017-08-07T21:09:48.644Z,57.90
2017-08-07T21:12:15.027Z,58.00
2017-08-07T21:14:41.347Z,57.90
2017-08-07T21:17:07.699Z,58.00
2017-08-07T21:19:34.000Z,58.90
2017-08-07T21:22:00.363Z,58.20
2017-08-07T21:24:26.680Z,58.20
2017-08-07T21:26:53.744Z,58.40
2017-08-07T21:29:20.076Z,58.30
2017-08-07T21:31:46.410Z,58.40
2017-08-07T21:34:12.756Z,58.40
2017-08-07T21:36:39.063Z,58.60
2017-08-07T21:39:05.396Z,58.60
2017-08-07T21:41:31.804Z,58.60
2017-08-07T21:43:58.159Z,58.80
2017-08-07T21:46:24.452Z,58.90
2017-08-07T21:48:50.792Z,59.00
2017-08-07T21:51:17.836Z,59.10
2017-08-07T21:53:44.925Z,59.00
2017-08-07T21:56:11.327Z,59.00
2017-08-07T21:58:38.352Z,59.00
2017-08-07T22:01:04.776Z,59.00
2017-08-07T22:03:31.129Z,59.70
2017-08-07T22:05:57.479Z,59.10
2017-08-07T22:08:23.807Z,59.30
2017-08-07T22:10:50.114Z,59.40
2017-08-07T22:13:16.467Z,59.30
2017-08-07T22:15:42.800Z,59.20
2017-08-07T22:18:09.104Z,59.40
2017-08-07T22:20:35.516Z,59.30
2017-08-07T22:23:01.896Z,59.60
2017-08-07T22:25:28.208Z,59.60
2017-08-07T22:27:55.312Z,59.60
2017-08-07T22:30:21.707Z,59.60
2017-08-07T22:32:48.020Z,59.70
2017-08-07T22:35:14.323Z,59.50
2017-08-07T22:37:40.703Z,59.60
2017-08-07T22:40:07.060Z,59.40
2017-08-07T22:42:33.384Z,59.00
2017-08-07T22:44:59.687Z,59.30
2017-08-07T22:47:26.001Z,59.30
2017-08-07T22:49:53.071Z,60.30
2017-08-07T22:52:19.361Z,60.20
2017-08-07T22:54:45.688Z,60.30
2017-08-07T22:57:12.072Z,60.20
2017-08-07T22:59:38.417Z,60.40
2017-08-07T23:02:04.699Z,60.30
2017-08-07T23:04:31.043Z,60.90
2017-08-07T23:06:57.348Z,61.00
2017-08-07T23:09:23.646Z,61.30
2017-08-07T23:11:49.997Z,61.50
2017-08-07T23:14:17.083Z,62.80
2017-08-07T23:16:43.381Z,62.10
2017-08-07T23:19:10.430Z,63.30
2017-08-07T23:21:37.125Z,62.50
2017-08-07T23:24:03.433Z,62.80
2017-08-07T23:26:29.771Z,63.10
2017-08-07T23:28:56.051Z,63.10
2017-08-07T23:31:22.393Z,63.60
2017-08-07T23:33:48.757Z,63.90
2017-08-07T23:36:15.100Z,64.10
2017-08-07T23:38:41.437Z,64.00
2017-08-07T23:41:07.763Z,64.10
2017-08-07T23:43:34.064Z,64.40
2017-08-07T23:46:00.407Z,64.60
2017-08-07T23:48:26.704Z,64.60
2017-08-07T23:50:53.772Z,64.60
2017-08-07T23:53:20.108Z,64.20
2017-08-07T23:55:46.421Z,64.30
2017-08-07T23:58:12.796Z,64.10
